Time;durP1;ratioP1;P1;durP2;ratioP2;P2;SDS_P1;SDS_P2;PMS_P1;PMS_P2;Temp;Humidity;BMP_temperature;BMP_pressure;BME280_temperature;BME280_humidity;BME280_pressure;Samples;Min_cycle;Max_cycle;Signal;HPM_P1;HPM_P2
2022/04/25 00:01:21;;;;;;;3.43;1.30;;;20.40;99.90;;;;;;5045697;28;20601;-92
2022/04/25 00:03:53;;;;;;;2.97;1.50;;;20.30;99.90;;;;;;5037133;28;20623;-92
2022/04/25 00:06:25;;;;;;;2.97;1.30;;;20.20;99.90;;;;;;5029449;28;20243;-92
2022/04/25 00:09:02;;;;;;;2.87;1.33;;;20.10;99.90;;;;;;5028791;28;20779;-92
2022/04/25 00:14:19;;;;;;;2.33;1.33;;;19.70;99.90;;;;;;5033040;28;20217;-92
2022/04/25 00:16:56;;;;;;;1.47;1.10;;;19.40;99.90;;;;;;5038067;28;20190;-92
2022/04/25 00:19:28;;;;;;;3.13;1.60;;;19.40;99.90;;;;;;5038382;28;20213;-92
2022/04/25 00:22:00;;;;;;;2.83;1.50;;;19.30;99.90;;;;;;5037928;28;20221;-93
2022/04/25 00:24:36;;;;;;;3.17;1.30;;;19.10;99.90;;;;;;5025901;28;20229;-91
2022/04/25 00:27:11;;;;;;;1.93;1.30;;;19.10;99.90;;;;;;5037063;28;20190;-92
2022/04/25 00:29:42;;;;;;;3.17;1.70;;;19.10;99.90;;;;;;5034321;28;20220;-91
2022/04/25 00:35:06;;;;;;;2.43;1.30;;;19.00;99.90;;;;;;5032294;28;20194;-91
2022/04/25 00:37:37;;;;;;;3.03;1.47;;;19.00;99.90;;;;;;5031626;28;20210;-92
2022/04/25 00:40:12;;;;;;;2.37;1.00;;;19.00;98.60;;;;;;5032592;28;20716;-91
2022/04/25 00:42:45;;;;;;;1.63;1.10;;;19.00;99.90;;;;;;5027165;28;20209;-91
2022/04/25 00:45:19;;;;;;;3.47;1.37;;;19.20;99.90;;;;;;5027114;28;20249;-91
2022/04/25 00:47:54;;;;;;;2.63;1.17;;;19.20;99.90;;;;;;5035964;28;20232;-91
2022/04/25 00:50:27;;;;;;;2.57;1.57;;;19.30;99.90;;;;;;5030519;28;20292;-91
2022/04/25 00:52:59;;;;;;;2.30;1.37;;;19.20;99.90;;;;;;5027820;28;20210;-93
2022/04/25 00:55:32;;;;;;;1.97;1.23;;;19.30;99.90;;;;;;5020536;28;20577;-92
2022/04/25 00:58:04;;;;;;;1.73;1.27;;;19.20;99.60;;;;;;5019737;28;20197;-92
2022/04/25 01:00:36;;;;;;;2.13;1.03;;;19.30;98.50;;;;;;5020827;28;20693;-91
2022/04/25 01:03:08;;;;;;;1.70;1.00;;;19.20;96.70;;;;;;5020530;28;20217;-92
2022/04/25 01:05:40;;;;;;;1.67;1.10;;;19.30;98.00;;;;;;5020925;28;20254;-92
2022/04/25 01:08:12;;;;;;;3.33;1.20;;;19.30;97.50;;;;;;5019015;28;20550;-92
2022/04/25 01:10:47;;;;;;;1.33;1.07;;;19.40;97.70;;;;;;5025300;28;20210;-92
2022/04/25 01:13:18;;;;;;;3.10;1.27;;;19.40;97.30;;;;;;5020932;28;20214;-91
2022/04/25 01:15:50;;;;;;;1.20;1.10;;;19.20;95.50;;;;;;5023856;28;20237;-91
2022/04/25 01:18:22;;;;;;;1.90;1.23;;;19.20;95.60;;;;;;5032223;28;20197;-90
2022/04/25 01:20:57;;;;;;;1.17;0.90;;;19.20;95.70;;;;;;5030899;28;20198;-92
2022/04/25 01:29:07;;;;;;;1.47;0.90;;;18.90;95.40;;;;;;5020666;28;20230;-92
2022/04/25 01:31:39;;;;;;;1.27;1.00;;;18.80;94.70;;;;;;5021829;28;20214;-92
2022/04/25 01:34:11;;;;;;;0.77;0.73;;;18.80;95.50;;;;;;5021428;28;20212;-93
2022/04/25 01:36:42;;;;;;;2.10;1.10;;;18.70;93.60;;;;;;5021060;28;20229;-92
2022/04/25 01:39:15;;;;;;;1.53;0.80;;;18.70;94.70;;;;;;5023130;28;20228;-91
2022/04/25 01:41:46;;;;;;;2.17;1.07;;;18.60;95.40;;;;;;5022776;28;20214;-92
2022/04/25 01:44:20;;;;;;;3.37;1.00;;;18.70;95.80;;;;;;5030482;28;20210;-90
2022/04/25 01:46:51;;;;;;;2.13;1.00;;;18.60;94.70;;;;;;5037808;28;20216;-91
2022/04/25 01:49:23;;;;;;;1.20;0.80;;;18.50;94.10;;;;;;5037110;28;20225;-91
2022/04/25 01:51:55;;;;;;;1.47;0.90;;;18.40;93.60;;;;;;5027309;28;20240;-92
2022/04/25 01:54:28;;;;;;;2.70;1.10;;;18.40;93.30;;;;;;5024294;28;20698;-93
2022/04/25 01:57:01;;;;;;;3.87;1.50;;;18.40;94.10;;;;;;5022211;28;20217;-93
2022/04/25 01:59:32;;;;;;;2.63;1.23;;;18.40;94.70;;;;;;5019181;28;20241;-92
2022/04/25 02:02:04;;;;;;;2.10;1.13;;;18.40;95.40;;;;;;5019221;28;20654;-91
2022/04/25 02:04:35;;;;;;;3.27;1.30;;;18.40;95.00;;;;;;5018423;28;20232;-91
2022/04/25 02:07:08;;;;;;;2.97;1.23;;;18.30;98.40;;;;;;5021402;28;20198;-89
2022/04/25 02:09:43;;;;;;;1.77;1.30;;;18.20;99.90;;;;;;5020216;28;20713;-91
2022/04/25 02:12:14;;;;;;;3.20;1.43;;;18.10;99.90;;;;;;5018580;28;20241;-92
2022/04/25 02:14:46;;;;;;;2.50;1.40;;;17.90;99.90;;;;;;5019272;28;20263;-91
2022/04/25 02:17:17;;;;;;;2.60;1.50;;;17.80;99.90;;;;;;5018499;28;20297;-90
2022/04/25 02:19:50;;;;;;;3.00;1.20;;;17.60;99.90;;;;;;5021522;28;20205;-91
2022/04/25 02:22:37;;;;;;;2.30;1.53;;;17.50;99.90;;;;;;5036093;28;20205;-92
2022/04/25 02:25:24;;;;;;;2.43;1.63;;;17.30;99.90;;;;;;5034458;28;20339;-92
2022/04/25 02:38:35;;;;;;;5.30;2.30;;;16.60;99.90;;;;;;5035189;28;20226;-91
2022/04/25 02:41:09;;;;;;;4.43;1.90;;;16.60;99.90;;;;;;5023184;28;20263;-90
2022/04/25 02:43:43;;;;;;;3.23;1.30;;;16.40;99.90;;;;;;5029407;28;20221;-92
2022/04/25 02:46:19;;;;;;;3.53;1.57;;;16.30;99.90;;;;;;5033698;28;20200;-90
2022/04/25 02:48:58;;;;;;;4.07;1.40;;;16.20;99.90;;;;;;5037145;28;20256;-89
2022/04/25 02:51:30;;;;;;;4.23;1.33;;;16.10;99.90;;;;;;5036344;28;20213;-92
2022/04/25 02:54:02;;;;;;;4.63;1.80;;;15.90;99.90;;;;;;5034059;28;20190;-92
2022/04/25 02:56:39;;;;;;;5.43;1.67;;;15.80;99.90;;;;;;5035122;28;20205;-92
2022/04/25 03:07:32;;;;;;;8.10;1.67;;;15.50;99.90;;;;;;5021198;28;20306;-92
2022/04/25 03:10:04;;;;;;;5.30;1.57;;;15.40;99.90;;;;;;5026820;28;20233;-92
2022/04/25 03:12:38;;;;;;;3.33;1.37;;;15.30;99.90;;;;;;5029557;28;20213;-93
2022/04/25 03:15:11;;;;;;;2.77;1.10;;;15.20;99.90;;;;;;5027916;28;20288;-91
2022/04/25 03:17:44;;;;;;;4.70;1.03;;;15.10;99.90;;;;;;5029367;28;20206;-90
2022/04/25 03:20:15;;;;;;;5.90;1.50;;;15.00;99.90;;;;;;5024761;28;20205;-92
2022/04/25 03:22:46;;;;;;;2.77;1.47;;;15.00;99.90;;;;;;5024832;28;20229;-92
2022/04/25 03:25:18;;;;;;;4.47;1.30;;;14.90;99.90;;;;;;5028981;28;20240;-92
2022/04/25 03:27:52;;;;;;;3.13;1.17;;;14.90;99.90;;;;;;5026946;28;20210;-92
2022/04/25 03:30:23;;;;;;;3.53;1.13;;;14.70;99.90;;;;;;5029365;28;20241;-90
2022/04/25 03:32:56;;;;;;;1.90;1.20;;;14.70;99.90;;;;;;5030114;28;20205;-92
2022/04/25 03:35:30;;;;;;;3.67;1.30;;;14.60;99.90;;;;;;5029752;28;20213;-92
2022/04/25 03:38:02;;;;;;;4.87;1.43;;;14.50;99.90;;;;;;5031283;28;20193;-92
2022/04/25 03:40:34;;;;;;;4.67;1.60;;;14.50;99.90;;;;;;5028211;28;20198;-92
2022/04/25 03:43:08;;;;;;;5.50;1.80;;;14.40;99.90;;;;;;5018157;28;20267;-91
2022/04/25 03:45:41;;;;;;;3.57;1.40;;;14.40;99.90;;;;;;5021460;28;20259;-91
2022/04/25 03:48:13;;;;;;;2.23;1.23;;;14.40;99.90;;;;;;5020263;28;20264;-91
2022/04/25 03:50:45;;;;;;;3.63;1.60;;;14.30;99.90;;;;;;5021110;28;20272;-91
2022/04/25 03:53:17;;;;;;;4.67;1.90;;;14.40;99.90;;;;;;5020995;28;20239;-91
2022/04/25 03:58:37;;;;;;;4.37;2.00;;;14.30;99.90;;;;;;5019765;28;20273;-91
2022/04/25 04:01:09;;;;;;;6.20;2.50;;;14.30;99.90;;;;;;5018948;28;20237;-92
2022/04/25 04:03:42;;;;;;;2.83;2.00;;;14.20;99.90;;;;;;5019819;28;20221;-93
2022/04/25 04:06:13;;;;;;;6.57;2.07;;;14.20;99.90;;;;;;5020067;28;20300;-92
2022/04/25 04:08:44;;;;;;;4.13;1.80;;;14.20;99.90;;;;;;5019641;28;20677;-91
2022/04/25 04:11:16;;;;;;;6.90;2.57;;;14.10;99.90;;;;;;5020271;28;20724;-90
2022/04/25 04:13:50;;;;;;;4.87;2.20;;;14.10;99.90;;;;;;5000651;28;20202;-89
2022/04/25 04:16:21;;;;;;;3.70;2.00;;;14.10;99.90;;;;;;5012246;28;20380;-91
2022/04/25 04:18:52;;;;;;;6.77;2.00;;;14.00;99.90;;;;;;5019532;28;20728;-91
2022/04/25 04:21:24;;;;;;;4.47;1.97;;;14.00;99.90;;;;;;5022804;28;20235;-91
2022/04/25 04:26:39;;;;;;;4.57;1.90;;;13.90;99.90;;;;;;5024681;28;20272;-91
2022/04/25 04:29:14;;;;;;;9.43;2.13;;;13.80;99.90;;;;;;5025155;28;20194;-92
2022/04/25 04:31:46;;;;;;;6.17;2.27;;;13.80;99.90;;;;;;5020079;28;20217;-92
2022/04/25 04:34:17;;;;;;;4.23;1.77;;;13.70;99.90;;;;;;5020460;28;20272;-90
2022/04/25 04:36:48;;;;;;;2.93;1.80;;;13.70;99.90;;;;;;5020370;28;20218;-90
2022/04/25 04:39:20;;;;;;;4.07;2.07;;;13.60;99.90;;;;;;5019805;28;20284;-91
2022/04/25 04:41:51;;;;;;;8.27;2.80;;;13.60;99.90;;;;;;5020659;28;20256;-91
2022/04/25 04:44:24;;;;;;;4.00;1.90;;;13.50;99.90;;;;;;5006184;28;20230;-92
2022/04/25 04:46:55;;;;;;;5.37;2.13;;;13.50;99.90;;;;;;5001339;28;20241;-92
2022/04/25 04:49:26;;;;;;;6.47;2.20;;;13.40;99.90;;;;;;5013867;28;20241;-90
2022/04/25 04:52:01;;;;;;;8.70;2.40;;;13.40;99.90;;;;;;5016127;28;20237;-92
2022/04/25 04:54:32;;;;;;;6.07;2.10;;;13.40;99.90;;;;;;5014685;28;20210;-92
2022/04/25 04:57:04;;;;;;;8.03;2.43;;;13.30;99.90;;;;;;5005811;28;20228;-92
2022/04/25 04:59:39;;;;;;;6.23;2.30;;;13.20;99.90;;;;;;5001882;28;20210;-91
2022/04/25 05:02:10;;;;;;;3.83;2.07;;;13.20;99.90;;;;;;5001997;28;20209;-92
2022/04/25 05:04:42;;;;;;;6.27;2.00;;;13.20;99.90;;;;;;4998987;28;20210;-92
2022/04/25 05:07:13;;;;;;;4.93;2.37;;;13.20;99.90;;;;;;5003528;28;20255;-92
2022/04/25 05:09:45;;;;;;;6.37;2.30;;;13.20;99.90;;;;;;5006999;28;20707;-92
2022/04/25 05:12:16;;;;;;;5.23;1.93;;;13.20;99.90;;;;;;5000528;28;20337;-91
2022/04/25 05:14:50;;;;;;;4.83;2.07;;;13.10;99.90;;;;;;5004165;28;20210;-91
2022/04/25 05:17:22;;;;;;;6.47;2.00;;;13.00;99.90;;;;;;5005187;28;20230;-92
2022/04/25 05:19:56;;;;;;;4.67;1.90;;;13.00;99.90;;;;;;5351760;23;20273;-92
2022/04/25 05:22:28;;;;;;;5.10;2.30;;;12.90;99.90;;;;;;5028512;28;20304;-91
2022/04/25 05:25:01;;;;;;;4.63;2.07;;;12.90;99.90;;;;;;5022028;28;20194;-91
2022/04/25 05:27:33;;;;;;;5.97;2.03;;;12.80;99.90;;;;;;5018460;28;20222;-91
2022/04/25 05:30:09;;;;;;;5.00;1.73;;;12.80;99.90;;;;;;5018354;28;20705;-91
2022/04/25 05:32:45;;;;;;;4.67;2.63;;;12.80;99.90;;;;;;5019251;28;20259;-91
2022/04/25 05:35:18;;;;;;;5.47;2.03;;;12.70;99.90;;;;;;5020508;28;20209;-91
2022/04/25 05:37:50;;;;;;;4.90;2.00;;;12.70;99.90;;;;;;5017560;28;20236;-91
2022/04/25 05:40:22;;;;;;;7.90;2.20;;;12.70;99.90;;;;;;5018549;28;20215;-91
2022/04/25 05:42:55;;;;;;;4.83;1.90;;;12.60;99.90;;;;;;5019154;28;20193;-91
2022/04/25 05:45:29;;;;;;;6.73;2.50;;;12.60;99.90;;;;;;5022822;28;20248;-89
2022/04/25 05:48:00;;;;;;;5.33;2.40;;;12.60;99.90;;;;;;5019619;28;20237;-90
2022/04/25 05:53:20;;;;;;;6.07;1.70;;;12.60;99.90;;;;;;5019500;28;20210;-92
2022/04/25 05:55:52;;;;;;;5.10;1.73;;;12.60;99.90;;;;;;5020031;28;20205;-92
2022/04/25 05:58:24;;;;;;;8.47;1.93;;;12.60;99.90;;;;;;5019514;28;20236;-91
2022/04/25 06:00:57;;;;;;;3.87;1.57;;;12.60;99.90;;;;;;5020277;28;20729;-92
2022/04/25 06:03:29;;;;;;;2.87;1.70;;;12.50;99.90;;;;;;5019162;28;20241;-91
2022/04/25 06:06:00;;;;;;;3.90;1.73;;;12.40;99.90;;;;;;5030876;28;20210;-92
2022/04/25 06:08:32;;;;;;;6.60;1.77;;;12.40;99.90;;;;;;5036516;28;20210;-91
2022/04/25 06:11:04;;;;;;;3.37;1.47;;;12.40;99.90;;;;;;5036755;28;20217;-91
2022/04/25 06:13:35;;;;;;;3.83;1.60;;;12.30;99.90;;;;;;5037686;28;20194;-91
2022/04/25 06:16:11;;;;;;;3.47;1.63;;;12.30;99.90;;;;;;5037781;28;20237;-91
2022/04/25 06:18:42;;;;;;;4.43;1.90;;;12.30;99.90;;;;;;5037646;28;20193;-92
2022/04/25 06:21:14;;;;;;;10.40;2.20;;;12.30;99.90;;;;;;5037829;28;20221;-92
2022/04/25 06:23:45;;;;;;;4.80;1.77;;;12.20;99.90;;;;;;5037910;28;20194;-92
2022/04/25 06:26:17;;;;;;;5.47;2.10;;;12.20;99.90;;;;;;5034608;28;20209;-90
2022/04/25 06:28:50;;;;;;;6.57;1.73;;;12.20;99.90;;;;;;5035355;28;20208;-90
2022/04/25 06:31:24;;;;;;;5.33;1.73;;;12.10;99.90;;;;;;5035719;28;20296;-91
2022/04/25 06:33:55;;;;;;;2.13;1.30;;;12.00;99.90;;;;;;5023239;28;20217;-90
2022/04/25 06:36:26;;;;;;;3.63;1.77;;;12.00;99.90;;;;;;5015141;28;20207;-91
2022/04/25 06:38:58;;;;;;;7.13;1.97;;;11.90;99.90;;;;;;5014054;28;20218;-91
2022/04/25 06:41:33;;;;;;;6.20;1.43;;;11.80;99.90;;;;;;5015251;28;20190;-90
2022/04/25 06:44:06;;;;;;;3.73;1.60;;;11.70;99.90;;;;;;5014791;28;20248;-91
2022/04/25 06:46:40;;;;;;;2.30;1.43;;;11.70;99.90;;;;;;5013651;28;20257;-92
2022/04/25 06:49:25;;;;;;;4.73;1.70;;;11.70;99.90;;;;;;5013510;28;20231;-91
2022/04/25 06:51:58;;;;;;;4.27;1.70;;;11.70;99.90;;;;;;5312652;23;23039;-91
2022/04/25 06:54:31;;;;;;;2.10;1.33;;;11.60;99.90;;;;;;5054161;28;20213;-91
2022/04/25 06:57:04;;;;;;;3.73;1.50;;;11.60;99.90;;;;;;5052699;28;20201;-92
2022/04/25 06:59:35;;;;;;;4.80;1.50;;;11.60;99.90;;;;;;5056695;28;20207;-92
2022/04/25 07:02:10;;;;;;;4.80;1.73;;;11.60;99.90;;;;;;5057196;28;20190;-92
2022/04/25 07:04:42;;;;;;;3.03;1.40;;;11.60;99.90;;;;;;5055688;28;20212;-92
2022/04/25 07:07:13;;;;;;;4.73;1.43;;;11.60;99.90;;;;;;5054766;28;20209;-93
2022/04/25 07:09:45;;;;;;;5.00;1.47;;;11.60;99.90;;;;;;5056239;28;20251;-92
2022/04/25 07:12:18;;;;;;;3.77;1.60;;;11.60;99.90;;;;;;5051681;28;20292;-91
2022/04/25 07:14:49;;;;;;;3.20;1.60;;;11.50;99.90;;;;;;5044399;28;20280;-92
2022/04/25 07:17:23;;;;;;;2.47;1.23;;;11.50;99.90;;;;;;5039587;28;20251;-91
2022/04/25 07:19:54;;;;;;;4.23;1.80;;;11.40;99.90;;;;;;5043240;28;20209;-91
2022/04/25 07:30:58;;;;;;;3.83;1.40;;;11.30;99.90;;;;;;5037848;28;20252;-91
2022/04/25 07:33:33;;;;;;;4.07;1.40;;;11.30;99.90;;;;;;5039361;28;20246;-91
2022/04/25 07:36:05;;;;;;;4.57;1.20;;;11.20;99.90;;;;;;5041472;28;20525;-91
2022/04/25 07:38:37;;;;;;;4.03;1.43;;;11.30;99.90;;;;;;5038776;28;20236;-91
2022/04/25 07:41:08;;;;;;;3.00;1.33;;;11.30;99.90;;;;;;5038213;28;20300;-92
2022/04/25 07:43:40;;;;;;;2.00;1.00;;;11.20;99.90;;;;;;5038229;28;20239;-91
2022/04/25 07:46:12;;;;;;;4.13;1.40;;;11.20;99.90;;;;;;5037527;28;20239;-91
2022/04/25 07:48:44;;;;;;;3.53;1.40;;;11.20;99.90;;;;;;5038149;28;20240;-91
2022/04/25 07:51:16;;;;;;;7.03;1.83;;;11.10;99.90;;;;;;5037510;28;20229;-91
2022/04/25 07:53:47;;;;;;;3.73;1.50;;;11.20;99.90;;;;;;5039088;28;20582;-91
2022/04/25 07:56:18;;;;;;;2.07;1.60;;;11.10;99.90;;;;;;5041443;28;20221;-91
2022/04/25 07:58:50;;;;;;;2.73;1.40;;;11.10;99.90;;;;;;5068427;23;20256;-90
2022/04/25 08:01:21;;;;;;;2.90;1.40;;;11.10;99.90;;;;;;5040572;28;20229;-90
2022/04/25 08:03:54;;;;;;;2.90;1.53;;;11.10;99.90;;;;;;5040323;28;20201;-91
2022/04/25 08:06:26;;;;;;;2.67;1.10;;;11.10;99.90;;;;;;5038870;28;20201;-91
2022/04/25 08:08:58;;;;;;;2.97;1.20;;;11.10;99.90;;;;;;5038555;28;20205;-91
2022/04/25 08:11:29;;;;;;;4.57;1.30;;;11.20;99.90;;;;;;5038993;28;20233;-91
2022/04/25 08:19:37;;;;;;;3.37;1.03;;;11.10;99.90;;;;;;5007985;28;20201;-91
2022/04/25 08:22:10;;;;;;;3.17;1.40;;;11.10;99.90;;;;;;5038310;28;20208;-91
2022/04/25 08:24:41;;;;;;;2.53;1.07;;;11.10;99.90;;;;;;5041440;28;20296;-91
2022/04/25 08:27:13;;;;;;;3.77;1.43;;;11.10;99.90;;;;;;5043440;28;20217;-91
2022/04/25 08:29:44;;;;;;;2.73;1.27;;;11.10;99.90;;;;;;5039180;28;20201;-91
2022/04/25 08:32:16;;;;;;;2.67;1.03;;;11.10;99.90;;;;;;5042986;28;20233;-91
2022/04/25 08:34:51;;;;;;;1.90;1.00;;;11.10;99.90;;;;;;5024241;28;20238;-91
2022/04/25 08:37:23;;;;;;;2.93;1.13;;;11.10;99.90;;;;;;5029880;28;20205;-92
2022/04/25 08:39:54;;;;;;;1.43;0.90;;;11.10;99.90;;;;;;5021804;28;20234;-90
2022/04/25 08:42:27;;;;;;;1.93;0.80;;;11.20;99.90;;;;;;5035779;28;20304;-90
2022/04/25 08:45:14;;;;;;;2.57;0.90;;;11.20;99.90;;;;;;5029336;28;20308;-90
2022/04/25 08:47:49;;;;;;;2.83;1.10;;;11.10;99.90;;;;;;5022112;28;20240;-91
2022/04/25 08:50:24;;;;;;;1.77;1.10;;;11.10;99.90;;;;;;5020504;28;20216;-90
2022/04/25 08:52:59;;;;;;;2.00;1.27;;;11.10;99.90;;;;;;5019373;28;20256;-90
2022/04/25 08:55:34;;;;;;;1.97;1.10;;;11.10;99.90;;;;;;5020125;28;20244;-91
2022/04/25 08:58:08;;;;;;;1.07;0.87;;;11.00;99.90;;;;;;5020229;28;20212;-90
2022/04/25 09:00:42;;;;;;;2.43;0.93;;;11.00;99.90;;;;;;5019059;28;20264;-91
2022/04/25 09:03:19;;;;;;;2.33;1.10;;;11.00;99.90;;;;;;5020861;28;20205;-90
2022/04/25 09:05:53;;;;;;;3.20;1.23;;;11.00;99.90;;;;;;5020268;28;20213;-90
2022/04/25 09:08:26;;;;;;;2.87;1.30;;;11.00;99.90;;;;;;5021624;28;20205;-91
2022/04/25 09:12:09;;;;;;;3.23;1.30;;;10.90;99.90;;;;;;5023258;28;20212;-91
2022/04/25 09:13:54;;;;;;;2.13;1.50;;;10.90;99.90;;;;;;5022597;28;20225;-91
2022/04/25 09:16:26;;;;;;;1.70;1.20;;;10.80;99.90;;;;;;5021670;28;20237;-90
2022/04/25 09:18:58;;;;;;;3.47;1.50;;;10.80;99.90;;;;;;5025517;28;20205;-91
2022/04/25 09:21:32;;;;;;;3.80;1.50;;;10.90;99.90;;;;;;5030910;28;20224;-91
2022/04/25 09:24:04;;;;;;;4.67;2.17;;;10.80;99.90;;;;;;5032930;28;20267;-90
2022/04/25 09:26:35;;;;;;;4.63;1.87;;;10.80;99.90;;;;;;5028958;28;20200;-90
2022/04/25 09:29:07;;;;;;;6.37;1.90;;;10.80;99.90;;;;;;5041423;28;20235;-91
2022/04/25 09:31:48;;;;;;;11.43;2.40;;;10.70;99.90;;;;;;5053273;28;20312;-91
2022/04/25 09:34:59;;;;;;;3.67;1.80;;;10.70;99.90;;;;;;5050850;28;20195;-89
2022/04/25 09:37:14;;;;;;;3.73;1.80;;;10.70;99.90;;;;;;5057051;28;20209;-90
2022/04/25 09:39:45;;;;;;;4.57;2.10;;;10.60;99.90;;;;;;5048358;28;20201;-90
2022/04/25 09:42:16;;;;;;;5.83;2.03;;;10.50;99.90;;;;;;5050894;28;20197;-90
2022/04/25 09:44:58;;;;;;;5.10;2.17;;;10.60;99.90;;;;;;5048341;28;20220;-90
2022/04/25 09:47:32;;;;;;;4.20;2.00;;;10.60;99.90;;;;;;5046005;28;20236;-91
2022/04/25 09:50:06;;;;;;;5.27;2.67;;;10.60;99.90;;;;;;5044499;28;20244;-90
2022/04/25 09:52:54;;;;;;;8.23;2.33;;;10.60;99.90;;;;;;5045116;28;20294;-90
2022/04/25 09:55:26;;;;;;;5.43;2.30;;;10.60;99.90;;;;;;5044011;28;20212;-90
2022/04/25 09:57:58;;;;;;;4.97;2.47;;;10.70;99.90;;;;;;5041451;28;20204;-91
2022/04/25 10:00:36;;;;;;;5.80;2.40;;;10.60;99.90;;;;;;5040263;28;20221;-89
2022/04/25 10:03:08;;;;;;;5.20;2.23;;;10.60;99.90;;;;;;5040498;28;20319;-89
2022/04/25 10:05:42;;;;;;;5.93;2.40;;;10.60;99.90;;;;;;5040143;28;20653;-90
2022/04/25 10:08:17;;;;;;;3.93;2.30;;;10.60;99.90;;;;;;5038556;28;20208;-90
2022/04/25 10:10:50;;;;;;;6.00;2.70;;;10.70;99.90;;;;;;5039778;28;20212;-90
2022/04/25 10:13:21;;;;;;;4.67;2.20;;;10.70;99.90;;;;;;5038590;28;20294;-89
2022/04/25 10:15:52;;;;;;;5.97;2.80;;;10.70;99.90;;;;;;5042352;28;20268;-90
2022/04/25 10:18:23;;;;;;;5.90;2.43;;;10.80;99.90;;;;;;5038154;28;20243;-90
2022/04/25 10:20:54;;;;;;;4.40;2.13;;;10.70;99.90;;;;;;5039345;28;20208;-90
2022/04/25 10:23:28;;;;;;;4.87;2.47;;;10.70;99.90;;;;;;5038765;28;20232;-91
2022/04/25 10:26:03;;;;;;;7.47;2.93;;;10.70;99.90;;;;;;5038843;28;20286;-91
2022/04/25 10:28:37;;;;;;;3.00;2.27;;;10.70;99.90;;;;;;5038058;28;20208;-91
2022/04/25 10:31:13;;;;;;;6.50;2.53;;;10.70;99.90;;;;;;5038835;28;20564;-90
2022/04/25 10:33:53;;;;;;;4.43;2.50;;;10.80;99.90;;;;;;5038612;28;20327;-90
2022/04/25 10:36:43;;;;;;;5.90;2.33;;;10.80;99.90;;;;;;5038798;28;20219;-91
2022/04/25 10:39:18;;;;;;;5.50;2.87;;;10.80;99.90;;;;;;5037361;28;20224;-91
2022/04/25 10:44:59;;;;;;;4.83;2.57;;;10.70;99.90;;;;;;5038502;28;20205;-91
2022/04/25 10:47:30;;;;;;;6.23;2.33;;;10.70;99.90;;;;;;5037212;28;20720;-91
2022/04/25 10:50:12;;;;;;;7.23;2.80;;;10.60;99.90;;;;;;5037758;28;20208;-91
2022/04/25 10:52:57;;;;;;;6.97;2.63;;;10.70;99.90;;;;;;5037175;28;20255;-91
2022/04/25 10:55:46;;;;;;;5.73;3.40;;;10.60;99.90;;;;;;5037873;28;20205;-90
2022/04/25 10:58:23;;;;;;;4.20;2.50;;;10.60;99.90;;;;;;5036715;28;20251;-90
2022/04/25 11:00:56;;;;;;;7.63;2.50;;;10.60;99.90;;;;;;5031908;28;20217;-90
2022/04/25 11:03:30;;;;;;;4.87;2.93;;;10.60;99.90;;;;;;5026276;28;20278;-91
2022/04/25 11:06:04;;;;;;;6.17;2.83;;;10.60;99.90;;;;;;5037829;28;20209;-91
2022/04/25 11:08:51;;;;;;;5.30;2.50;;;10.60;99.90;;;;;;5036763;28;20288;-91
2022/04/25 11:11:25;;;;;;;7.20;2.70;;;10.70;99.90;;;;;;5038117;28;20215;-91
2022/04/25 11:14:26;;;;;;;9.60;3.33;;;10.70;99.90;;;;;;5037746;28;20320;-91
2022/04/25 11:17:14;;;;;;;6.37;3.10;;;10.70;99.90;;;;;;5039418;28;20217;-90
2022/04/25 11:19:54;;;;;;;7.53;3.10;;;10.60;99.90;;;;;;5040694;28;20630;-91
2022/04/25 11:22:33;;;;;;;6.43;2.93;;;10.60;99.90;;;;;;5039796;28;20263;-91
2022/04/25 11:25:43;;;;;;;5.03;2.53;;;10.60;99.90;;;;;;5042242;28;20565;-90
2022/04/25 11:28:17;;;;;;;4.30;2.80;;;10.80;99.90;;;;;;5026045;28;20240;-91
2022/04/25 11:31:22;;;;;;;5.23;2.93;;;10.80;99.90;;;;;;5052008;28;20228;-90
2022/04/25 11:33:56;;;;;;;5.77;3.63;;;10.70;99.90;;;;;;5056544;28;20276;-91
2022/04/25 11:36:29;;;;;;;4.73;2.70;;;10.60;99.90;;;;;;5056606;28;20268;-91
2022/04/25 11:41:48;;;;;;;9.20;3.20;;;10.60;99.90;;;;;;5056223;28;20208;-90
2022/04/25 11:44:21;;;;;;;9.37;3.10;;;10.50;99.90;;;;;;5056829;28;20193;-90
2022/04/25 11:46:53;;;;;;;4.80;3.20;;;10.50;99.90;;;;;;5054205;28;20205;-89
2022/04/25 11:49:31;;;;;;;11.13;3.23;;;10.40;99.90;;;;;;5040151;28;20220;-89
2022/04/25 11:52:03;;;;;;;8.97;3.80;;;10.40;99.90;;;;;;5039087;28;20201;-90
2022/04/25 11:54:36;;;;;;;7.13;3.63;;;10.40;99.90;;;;;;5042337;28;20275;-91
2022/04/25 11:57:08;;;;;;;5.93;2.63;;;10.40;99.90;;;;;;5044793;28;20205;-89
2022/04/25 11:59:41;;;;;;;6.43;3.30;;;10.40;99.90;;;;;;5040569;28;20579;-88
2022/04/25 12:02:13;;;;;;;7.87;3.67;;;10.40;99.90;;;;;;5043462;28;20256;-90
2022/04/25 12:04:44;;;;;;;5.43;3.23;;;10.50;99.90;;;;;;5043218;28;20304;-89
2022/04/25 12:07:15;;;;;;;7.73;3.43;;;10.60;99.90;;;;;;5044726;28;20234;-90
2022/04/25 12:15:37;;;;;;;17.77;3.63;;;10.20;99.90;;;;;;5033557;28;20605;-89
2022/04/25 12:18:17;;;;;;;9.90;4.53;;;10.20;99.90;;;;;;5055922;28;20209;-87
2022/04/25 12:20:50;;;;;;;14.10;4.13;;;10.20;99.90;;;;;;5056564;28;20200;-89
2022/04/25 12:23:26;;;;;;;11.70;4.10;;;10.00;99.90;;;;;;5054305;28;20267;-90
2022/04/25 12:25:58;;;;;;;10.50;4.43;;;10.00;99.90;;;;;;5045154;28;20634;-90
2022/04/25 12:28:30;;;;;;;8.97;4.13;;;10.00;99.90;;;;;;5044678;28;20239;-89
2022/04/25 12:31:08;;;;;;;9.13;4.07;;;9.90;99.90;;;;;;5044730;28;20229;-90
2022/04/25 12:33:42;;;;;;;8.50;4.10;;;9.80;99.90;;;;;;5042067;28;20608;-90
2022/04/25 12:36:18;;;;;;;7.43;4.57;;;9.70;99.90;;;;;;5040731;28;20212;-90
2022/04/25 12:38:55;;;;;;;12.10;4.93;;;9.70;99.90;;;;;;5042062;28;20206;-90
2022/04/25 12:41:30;;;;;;;7.40;4.90;;;9.70;99.90;;;;;;5040610;28;20763;-90
2022/04/25 12:44:13;;;;;;;6.03;4.03;;;9.80;99.90;;;;;;5045156;28;20216;-89
2022/04/25 12:46:47;;;;;;;11.13;4.63;;;9.90;99.90;;;;;;5040239;28;20205;-90
2022/04/25 12:49:20;;;;;;;6.73;4.07;;;9.90;99.90;;;;;;5040016;28;20216;-90
2022/04/25 12:52:01;;;;;;;8.03;4.40;;;9.90;99.90;;;;;;5022809;28;20214;-89
2022/04/25 12:54:34;;;;;;;14.13;4.23;;;9.80;99.90;;;;;;5019055;28;20248;-89
2022/04/25 12:57:13;;;;;;;10.57;4.33;;;9.90;99.90;;;;;;5027568;28;20215;-89
2022/04/25 12:59:45;;;;;;;6.23;3.90;;;9.90;99.90;;;;;;5039328;28;20670;-89
2022/04/25 13:02:20;;;;;;;8.80;3.83;;;9.80;99.90;;;;;;5041121;28;20228;-91
2022/04/25 13:04:54;;;;;;;5.57;3.33;;;9.90;99.90;;;;;;5021418;28;20235;-89
2022/04/25 13:07:28;;;;;;;5.70;3.90;;;9.80;99.90;;;;;;5030798;28;20276;-90
2022/04/25 13:10:00;;;;;;;8.57;3.80;;;9.90;99.90;;;;;;5040377;28;20247;-88
2022/04/25 13:12:36;;;;;;;7.97;4.00;;;9.90;99.90;;;;;;5040446;28;20730;-88
2022/04/25 13:15:09;;;;;;;6.10;3.43;;;10.00;99.90;;;;;;5040158;28;20263;-88
2022/04/25 13:17:44;;;;;;;5.93;3.80;;;10.00;99.90;;;;;;5038848;28;20209;-88
2022/04/25 13:20:17;;;;;;;5.50;3.47;;;10.00;99.90;;;;;;5040134;28;20299;-89
2022/04/25 13:22:49;;;;;;;8.33;3.67;;;10.00;99.90;;;;;;5041579;28;20237;-90
2022/04/25 13:25:23;;;;;;;6.33;3.90;;;9.90;99.90;;;;;;5037609;28;20662;-89
2022/04/25 13:27:55;;;;;;;4.37;3.23;;;10.00;99.90;;;;;;5037099;28;20575;-89
2022/04/25 13:30:27;;;;;;;6.63;3.83;;;10.00;99.90;;;;;;5040782;28;20224;-88
2022/04/25 13:33:00;;;;;;;7.83;4.00;;;9.80;99.90;;;;;;5038180;28;20217;-90
2022/04/25 13:35:31;;;;;;;7.73;3.90;;;9.80;99.90;;;;;;5040897;28;20264;-88
2022/04/25 13:38:02;;;;;;;5.57;3.60;;;9.80;99.90;;;;;;5037603;28;20201;-90
2022/04/25 13:40:34;;;;;;;5.70;4.00;;;9.80;99.90;;;;;;5038776;28;20205;-90
2022/04/25 13:43:08;;;;;;;6.43;3.90;;;9.70;99.90;;;;;;5038773;28;20205;-90
2022/04/25 13:45:40;;;;;;;8.73;4.33;;;9.70;99.90;;;;;;5038510;28;20201;-90
2022/04/25 13:48:16;;;;;;;8.27;4.00;;;9.70;99.90;;;;;;5044149;28;20217;-90
2022/04/25 13:50:48;;;;;;;7.10;4.67;;;9.60;99.90;;;;;;5038951;28;20239;-90
2022/04/25 13:53:19;;;;;;;8.70;4.30;;;9.60;99.90;;;;;;5049458;28;20213;-90
2022/04/25 13:55:51;;;;;;;6.77;4.70;;;9.70;99.90;;;;;;5054940;28;20228;-88
2022/04/25 13:58:24;;;;;;;6.50;4.33;;;9.70;99.90;;;;;;5050564;28;20201;-88
2022/04/25 14:00:55;;;;;;;15.50;5.50;;;9.60;99.90;;;;;;5037555;28;20255;-89
2022/04/25 14:03:29;;;;;;;9.57;5.10;;;9.60;99.90;;;;;;5038348;28;20220;-89
2022/04/25 14:06:02;;;;;;;10.27;5.43;;;9.70;99.90;;;;;;5038020;28;20254;-88
2022/04/25 14:08:33;;;;;;;7.70;5.40;;;9.70;99.90;;;;;;5036964;28;20258;-89
2022/04/25 14:11:04;;;;;;;8.40;5.50;;;9.70;99.90;;;;;;5037447;28;20295;-88
2022/04/25 14:13:35;;;;;;;11.40;5.87;;;9.70;99.90;;;;;;5039156;28;20268;-89
2022/04/25 14:16:07;;;;;;;12.83;6.00;;;9.70;99.90;;;;;;5036865;28;20271;-89
2022/04/25 14:18:40;;;;;;;12.73;6.70;;;9.70;99.90;;;;;;5037094;28;20237;-89
2022/04/25 14:21:12;;;;;;;10.43;6.63;;;9.80;99.90;;;;;;5039180;28;20209;-89
2022/04/25 14:23:43;;;;;;;9.23;6.90;;;9.80;99.90;;;;;;5043249;28;20659;-90
2022/04/25 14:26:16;;;;;;;13.80;6.90;;;9.80;99.90;;;;;;5039764;28;20247;-90